Time;durP1;ratioP1;P1;durP2;ratioP2;P2;SDS_P1;SDS_P2;PMS_P1;PMS_P2;Temp;Humidity;BMP_temperature;BMP_pressure;BME280_temperature;BME280_humidity;BME280_pressure;Samples;Min_cycle;Max_cycle;Signal;HPM_P1;HPM_P2
2022/03/21 00:01:21;;;;;;;18.00;12.40;;;6.30;53.90;;;;;;5073146;28;20523;-89
2022/03/21 00:03:49;;;;;;;15.77;11.15;;;;;;;;;;5073530;28;20686;-91
2022/03/21 00:06:16;;;;;;;19.50;12.90;;;;;;;;;;5073372;28;20290;-90
2022/03/21 00:08:44;;;;;;;17.77;12.82;;;;;;;;;;5073770;28;20561;-90
2022/03/21 00:11:13;;;;;;;18.42;12.02;;;;;;;;;;5073291;28;20294;-92
2022/03/21 00:13:40;;;;;;;15.43;11.32;;;;;;;;;;5073416;28;20211;-90
2022/03/21 00:16:08;;;;;;;15.20;12.10;;;;;;;;;;5073611;28;20286;-91
2022/03/21 00:18:38;;;;;;;20.05;11.52;;;;;;;;;;5073706;28;20199;-89
2022/03/21 00:21:06;;;;;;;16.98;12.65;;;;;;;;;;5074077;28;20568;-90
2022/03/21 00:23:34;;;;;;;18.95;11.85;;;;;;;;;;5073511;28;20269;-89
2022/03/21 00:26:01;;;;;;;19.25;12.85;;;5.90;68.80;;;;;;5073185;28;20282;-90
2022/03/21 00:28:30;;;;;;;14.27;12.23;;;6.40;56.50;;;;;;5073831;28;20645;-91
2022/03/21 00:30:57;;;;;;;20.63;14.00;;;;;;;;;;5073315;28;20249;-90
2022/03/21 00:33:24;;;;;;;22.08;13.55;;;;;;;;;;5073663;28;20207;-90
2022/03/21 00:35:52;;;;;;;18.70;13.65;;;5.80;55.60;;;;;;5072372;28;20314;-90
2022/03/21 00:38:20;;;;;;;19.17;12.50;;;5.70;75.20;;;;;;5073249;28;20187;-90
2022/03/21 00:40:48;;;;;;;15.98;13.15;;;5.70;56.10;;;;;;5073584;28;20257;-89
2022/03/21 00:43:17;;;;;;;23.77;14.43;;;;;;;;;;5071716;28;20206;-89
2022/03/21 00:45:46;;;;;;;21.02;13.43;;;;;;;;;;5071009;28;20602;-89
2022/03/21 00:48:14;;;;;;;17.23;13.82;;;5.70;56.80;;;;;;5072441;28;20195;-88
2022/03/21 00:50:41;;;;;;;21.40;14.90;;;;;;;;;;5073296;28;20304;-90
2022/03/21 00:53:08;;;;;;;21.83;14.63;;;;;;;;;;5061742;28;20199;-90
2022/03/21 00:55:36;;;;;;;16.65;13.55;;;;;;;;;;5072812;28;20198;-90
2022/03/21 00:58:03;;;;;;;21.27;15.02;;;;;;;;;;5063354;28;20191;-91
2022/03/21 01:00:31;;;;;;;16.40;13.00;;;5.30;57.90;;;;;;5074297;28;20211;-89
2022/03/21 01:03:01;;;;;;;21.85;14.13;;;5.30;57.40;;;;;;5069553;28;20530;-89
2022/03/21 01:05:29;;;;;;;18.60;14.30;;;5.00;57.20;;;;;;5071491;28;20215;-90
2022/03/21 01:07:58;;;;;;;21.70;14.20;;;5.10;58.00;;;;;;5073034;28;20567;-89
2022/03/21 01:10:28;;;;;;;26.08;14.68;;;5.00;58.20;;;;;;5073250;28;20199;-89
2022/03/21 01:12:57;;;;;;;19.83;13.43;;;5.00;58.70;;;;;;5070931;28;20196;-91
2022/03/21 01:15:26;;;;;;;17.52;12.88;;;5.10;58.20;;;;;;5073014;28;20195;-89
2022/03/21 01:17:56;;;;;;;18.75;12.82;;;5.30;78.60;;;;;;5072519;28;20214;-90
2022/03/21 01:20:24;;;;;;;16.75;12.30;;;;;;;;;;5072178;28;20282;-91
2022/03/21 01:22:52;;;;;;;17.08;13.07;;;7.60;59.80;;;;;;5072326;28;20652;-89
2022/03/21 01:25:20;;;;;;;17.85;12.35;;;4.90;58.10;;;;;;5071469;28;20251;-90
2022/03/21 01:27:48;;;;;;;20.58;13.45;;;5.10;58.20;;;;;;5072241;28;20199;-90
2022/03/21 01:30:17;;;;;;;16.80;13.38;;;;;;;;;;5073218;28;20282;-90
2022/03/21 01:32:46;;;;;;;19.58;13.82;;;;;;;;;;5072172;28;20268;-90
2022/03/21 01:35:26;;;;;;;18.95;13.57;;;;;;;;;;5107680;27;20785;-89
2022/03/21 01:37:54;;;;;;;17.88;12.93;;;;;;;;;;5108282;28;20816;-90
2022/03/21 01:40:23;;;;;;;19.50;14.43;;;;;;;;;;5104307;28;20934;-90
2022/03/21 01:42:51;;;;;;;16.65;12.75;;;4.50;59.20;;;;;;5109320;28;20589;-89
2022/03/21 01:45:19;;;;;;;16.85;12.10;;;5.60;88.90;;;;;;5107407;28;20193;-90
2022/03/21 01:47:47;;;;;;;21.63;13.30;;;5.00;58.00;;;;;;5109118;28;20213;-89
2022/03/21 01:50:15;;;;;;;17.00;12.98;;;5.00;86.00;;;;;;5109047;28;20204;-90
2022/03/21 01:52:44;;;;;;;18.40;14.05;;;5.10;77.30;;;;;;5108450;28;20190;-90
2022/03/21 01:57:59;;;;;;;14.73;11.43;;;5.10;57.90;;;;;;5108356;28;20854;-89
2022/03/21 02:00:26;;;;;;;16.55;13.30;;;;;;;;;;5109055;28;20206;-89
2022/03/21 02:02:54;;;;;;;17.75;12.65;;;;;;;;;;5108367;28;20182;-90
2022/03/21 02:05:22;;;;;;;16.10;12.15;;;;;;;;;;5108247;28;20190;-90
2022/03/21 02:07:50;;;;;;;15.98;12.88;;;4.50;75.10;;;;;;5107862;28;20269;-90
2022/03/21 02:10:18;;;;;;;14.55;10.90;;;;;;;;;;5107381;28;20221;-89
2022/03/21 02:12:47;;;;;;;14.95;11.60;;;5.10;60.20;;;;;;5108127;28;20216;-89
2022/03/21 02:15:15;;;;;;;22.00;13.13;;;4.30;83.50;;;;;;5107643;28;20225;-89
2022/03/21 02:17:46;;;;;;;15.68;11.43;;;4.30;83.80;;;;;;5108058;28;20277;-90
2022/03/21 02:20:13;;;;;;;17.30;11.60;;;;;;;;;;5108323;28;20194;-90
2022/03/21 02:22:55;;;;;;;17.13;11.43;;;4.30;59.70;;;;;;5107639;28;20198;-91
2022/03/21 02:25:31;;;;;;;17.25;12.45;;;4.30;59.30;;;;;;5107509;28;20207;-89
2022/03/21 02:28:01;;;;;;;16.33;11.70;;;4.40;59.20;;;;;;5107637;28;20285;-89
2022/03/21 02:30:29;;;;;;;15.68;11.82;;;4.40;84.20;;;;;;5108140;28;20206;-91
2022/03/21 02:32:57;;;;;;;16.60;12.23;;;4.30;83.20;;;;;;5107452;28;20186;-89
2022/03/21 02:35:26;;;;;;;16.63;12.75;;;4.40;59.40;;;;;;5103428;28;20233;-90
2022/03/21 02:37:55;;;;;;;15.10;12.18;;;4.40;60.00;;;;;;5107616;28;20281;-90
2022/03/21 02:40:23;;;;;;;17.80;12.18;;;4.20;85.60;;;;;;5107643;28;20556;-90
2022/03/21 02:42:51;;;;;;;18.33;12.48;;;;;;;;;;5107936;28;20183;-90
2022/03/21 02:45:19;;;;;;;17.75;11.88;;;;;;;;;;5101339;28;20289;-89
2022/03/21 02:47:46;;;;;;;13.98;10.40;;;4.00;75.70;;;;;;5093652;28;20183;-90
2022/03/21 02:50:17;;;;;;;17.42;12.75;;;4.00;72.10;;;;;;5090810;28;20187;-90
2022/03/21 02:52:47;;;;;;;15.65;11.40;;;4.10;60.20;;;;;;5091105;28;20201;-90
2022/03/21 02:55:14;;;;;;;16.48;12.85;;;4.70;83.80;;;;;;5094141;28;20222;-89
2022/03/21 02:57:43;;;;;;;15.20;11.10;;;4.00;76.20;;;;;;5094210;28;20230;-88
2022/03/21 03:00:13;;;;;;;16.80;12.25;;;;;;;;;;5093095;28;20195;-89
2022/03/21 03:02:41;;;;;;;16.38;12.20;;;;;;;;;;5093871;28;20653;-89
2022/03/21 03:05:11;;;;;;;17.13;12.80;;;4.20;62.40;;;;;;5093384;28;20680;-89
2022/03/21 03:07:38;;;;;;;20.20;12.25;;;3.80;83.60;;;;;;5093700;28;20669;-91
2022/03/21 03:10:07;;;;;;;16.17;11.95;;;4.10;63.50;;;;;;5093082;28;20597;-89
2022/03/21 03:12:35;;;;;;;19.58;12.80;;;4.10;70.80;;;;;;5093157;28;20256;-90
2022/03/21 03:15:02;;;;;;;15.23;11.02;;;4.30;75.80;;;;;;5093607;28;20249;-90
2022/03/21 03:17:30;;;;;;;16.35;12.05;;;4.20;61.80;;;;;;5093308;28;20259;-90
2022/03/21 03:19:57;;;;;;;16.17;12.00;;;4.10;61.70;;;;;;5093415;28;20202;-90
2022/03/21 03:22:25;;;;;;;16.88;12.95;;;4.10;62.20;;;;;;5093603;28;20455;-91
2022/03/21 03:24:53;;;;;;;16.02;12.32;;;4.40;64.30;;;;;;5093890;28;20267;-89
2022/03/21 03:27:20;;;;;;;14.10;12.43;;;3.70;73.80;;;;;;5093654;28;20191;-89
2022/03/21 03:29:47;;;;;;;19.50;12.63;;;4.00;61.70;;;;;;5090273;28;20280;-90
2022/03/21 03:32:15;;;;;;;13.73;12.27;;;3.80;75.50;;;;;;5092801;28;20672;-90
2022/03/21 03:34:43;;;;;;;16.90;11.60;;;4.70;64.60;;;;;;5093507;28;20279;-89
2022/03/21 03:37:11;;;;;;;16.48;11.98;;;;;;;;;;5092022;28;20570;-90
2022/03/21 03:39:38;;;;;;;16.70;12.60;;;3.70;73.70;;;;;;5092714;28;20216;-90
2022/03/21 03:42:06;;;;;;;15.85;11.48;;;3.90;81.80;;;;;;5093001;28;20202;-88
2022/03/21 03:44:40;;;;;;;13.20;11.60;;;4.00;84.50;;;;;;5092840;28;20561;-92
2022/03/21 03:47:07;;;;;;;16.30;13.05;;;3.90;63.90;;;;;;5093439;28;20194;-90
2022/03/21 03:49:34;;;;;;;21.67;12.23;;;3.80;63.80;;;;;;5093209;28;20183;-89
2022/03/21 03:52:03;;;;;;;15.75;12.50;;;;;;;;;;5093126;28;20592;-90
2022/03/21 03:54:30;;;;;;;16.45;11.85;;;3.80;83.10;;;;;;5093020;28;20230;-90
2022/03/21 03:56:57;;;;;;;19.88;14.00;;;;;;;;;;5090412;28;20580;-90
2022/03/21 03:59:24;;;;;;;16.33;12.20;;;4.00;74.50;;;;;;5092320;28;20396;-89
2022/03/21 04:01:51;;;;;;;18.00;13.45;;;3.70;62.90;;;;;;5091987;28;20194;-89
2022/03/21 04:04:19;;;;;;;15.52;11.90;;;;;;;;;;5093163;28;20289;-90
2022/03/21 04:06:46;;;;;;;18.17;13.10;;;;;;;;;;5075871;28;20186;-88
2022/03/21 04:09:14;;;;;;;16.20;12.48;;;3.90;62.80;;;;;;5092413;28;20203;-88
2022/03/21 04:11:41;;;;;;;16.10;12.75;;;3.90;87.00;;;;;;5092836;28;20187;-90
2022/03/21 04:14:09;;;;;;;23.80;14.18;;;4.50;83.40;;;;;;5092588;28;20218;-89
2022/03/21 04:16:36;;;;;;;13.07;11.25;;;4.00;82.10;;;;;;5092901;28;20201;-90
2022/03/21 04:19:03;;;;;;;17.38;11.85;;;3.80;63.40;;;;;;5092839;28;20213;-90
2022/03/21 04:21:30;;;;;;;12.70;9.93;;;4.20;81.40;;;;;;5092382;28;20202;-90
2022/03/21 04:23:58;;;;;;;15.00;12.27;;;;;;;;;;5089208;28;20274;-89
2022/03/21 04:26:26;;;;;;;14.35;10.82;;;4.30;87.60;;;;;;5092192;28;20306;-90
2022/03/21 04:28:55;;;;;;;15.57;11.45;;;3.90;61.70;;;;;;5092499;28;20536;-89
2022/03/21 04:31:22;;;;;;;16.55;10.95;;;;;;;;;;5091770;28;20235;-88
2022/03/21 04:33:49;;;;;;;14.35;11.23;;;3.20;56.30;;;;;;5091824;28;20293;-89
2022/03/21 04:36:19;;;;;;;16.88;10.45;;;5.00;81.20;;;;;;5090559;28;20227;-90
2022/03/21 04:38:46;;;;;;;16.20;11.05;;;;;;;;;;5092337;28;20190;-88
2022/03/21 04:41:13;;;;;;;14.15;10.95;;;4.50;65.20;;;;;;5091727;28;20240;-89
2022/03/21 04:43:42;;;;;;;12.82;9.65;;;;;;;;;;5092148;28;20251;-89
2022/03/21 04:46:09;;;;;;;14.10;10.40;;;4.40;59.10;;;;;;5091422;28;20194;-90
2022/03/21 04:48:36;;;;;;;12.90;10.43;;;;;;;;;;5092225;28;20190;-90
2022/03/21 04:51:03;;;;;;;17.35;11.93;;;4.50;78.80;;;;;;5091672;28;20202;-89
2022/03/21 04:53:30;;;;;;;13.55;11.02;;;4.30;77.00;;;;;;5092305;28;20187;-89
2022/03/21 04:55:57;;;;;;;14.02;11.10;;;4.40;71.60;;;;;;5092356;28;20255;-90
2022/03/21 04:58:24;;;;;;;14.77;9.98;;;;;;;;;;5092056;28;20190;-89
2022/03/21 05:00:52;;;;;;;14.95;11.35;;;4.30;56.60;;;;;;5073321;28;20187;-89
2022/03/21 05:03:19;;;;;;;15.57;10.60;;;4.40;71.40;;;;;;5094315;28;20570;-89
2022/03/21 05:05:46;;;;;;;11.88;9.95;;;;;;;;;;5095306;28;20270;-89
2022/03/21 05:08:15;;;;;;;16.23;11.32;;;4.40;56.00;;;;;;5090539;28;20201;-89
2022/03/21 05:10:42;;;;;;;13.95;11.30;;;4.30;69.30;;;;;;5091399;28;20657;-89
2022/03/21 05:13:10;;;;;;;16.48;10.30;;;4.40;69.20;;;;;;5091486;28;20218;-89
2022/03/21 05:15:37;;;;;;;16.65;11.15;;;;;;;;;;5089921;28;20300;-89
2022/03/21 05:18:05;;;;;;;13.95;10.85;;;4.30;56.00;;;;;;5091438;28;20186;-89
2022/03/21 05:20:33;;;;;;;14.20;11.45;;;;;;;;;;5088302;28;20194;-89
2022/03/21 05:31:14;;;;;;;18.63;10.52;;;4.70;82.30;;;;;;5085066;28;20255;-90
2022/03/21 05:36:27;;;;;;;12.70;9.65;;;4.60;79.80;;;;;;5089822;28;20237;-89
2022/03/21 05:38:54;;;;;;;11.60;9.93;;;4.20;80.50;;;;;;5091536;28;20668;-89
2022/03/21 05:41:22;;;;;;;12.88;10.00;;;;;;;;;;5090745;28;20187;-88
2022/03/21 05:43:49;;;;;;;14.52;11.02;;;4.10;70.50;;;;;;5090670;28;20241;-88
2022/03/21 05:46:16;;;;;;;17.30;12.35;;;4.10;78.20;;;;;;5090478;28;20665;-88
2022/03/21 05:48:54;;;;;;;15.30;11.23;;;3.90;78.30;;;;;;5090921;28;20794;-88
2022/03/21 05:51:24;;;;;;;16.65;11.80;;;4.00;73.80;;;;;;5091121;28;20194;-88
2022/03/21 05:53:52;;;;;;;15.82;10.45;;;4.00;72.30;;;;;;5070870;28;20199;-88
2022/03/21 05:56:19;;;;;;;11.48;9.65;;;3.80;64.20;;;;;;5083946;28;20408;-88
2022/03/21 05:58:52;;;;;;;17.13;10.27;;;;;;;;;;5088705;28;20194;-88
2022/03/21 06:01:22;;;;;;;18.92;11.80;;;;;;;;;;5086089;28;20439;-88
2022/03/21 06:03:59;;;;;;;18.50;11.10;;;;;;;;;;5086705;28;20660;-88
2022/03/21 06:06:32;;;;;;;17.20;11.20;;;;;;;;;;5090231;28;20191;-88
2022/03/21 06:09:06;;;;;;;15.32;10.43;;;;;;;;;;5090231;28;20582;-89
2022/03/21 06:11:36;;;;;;;13.82;11.55;;;4.20;69.80;;;;;;5088731;28;20198;-89
2022/03/21 06:14:05;;;;;;;12.65;10.35;;;4.30;72.50;;;;;;5086308;28;20229;-88
2022/03/21 06:16:33;;;;;;;14.15;10.85;;;;;;;;;;5090235;28;20223;-88
2022/03/21 06:19:01;;;;;;;18.23;12.02;;;4.20;63.90;;;;;;5090405;28;20202;-88
2022/03/21 06:21:29;;;;;;;15.50;11.90;;;4.30;56.90;;;;;;5077517;28;20706;-88
2022/03/21 06:23:56;;;;;;;22.48;11.43;;;4.30;56.70;;;;;;5095011;28;20524;-88
2022/03/21 06:26:23;;;;;;;18.42;11.50;;;4.60;58.20;;;;;;5093336;28;20190;-88
2022/03/21 06:28:50;;;;;;;15.10;11.02;;;4.50;55.90;;;;;;5093763;28;20684;-88
2022/03/21 06:31:18;;;;;;;18.58;11.32;;;4.60;73.70;;;;;;5094406;28;20554;-88
2022/03/21 06:33:45;;;;;;;17.30;11.48;;;4.60;74.40;;;;;;5092258;28;20718;-88
2022/03/21 06:36:14;;;;;;;15.13;10.02;;;4.50;56.50;;;;;;5093106;28;20309;-88
2022/03/21 06:38:41;;;;;;;13.45;11.02;;;;;;;;;;5091417;28;20213;-88
2022/03/21 06:41:08;;;;;;;16.67;11.23;;;4.10;64.50;;;;;;5092840;28;20214;-89
2022/03/21 06:43:35;;;;;;;17.77;11.35;;;4.70;74.60;;;;;;5093053;28;20194;-88
2022/03/21 06:46:02;;;;;;;21.95;11.70;;;4.50;66.10;;;;;;5093765;28;20248;-89
2022/03/21 06:48:29;;;;;;;20.98;12.25;;;4.60;74.20;;;;;;5092975;28;20759;-89
2022/03/21 06:50:56;;;;;;;14.93;11.02;;;4.80;65.10;;;;;;5093410;28;20191;-87
2022/03/21 06:53:24;;;;;;;15.25;11.73;;;4.80;56.70;;;;;;5093807;28;20190;-88
2022/03/21 06:55:53;;;;;;;16.73;12.02;;;;;;;;;;5092606;28;20861;-88
2022/03/21 06:58:21;;;;;;;16.63;13.32;;;5.00;76.20;;;;;;5093103;28;20249;-88
2022/03/21 07:00:48;;;;;;;15.27;12.05;;;5.70;68.70;;;;;;5093236;28;20206;-89
2022/03/21 07:03:17;;;;;;;22.58;13.60;;;5.00;58.30;;;;;;5091826;28;20183;-88
2022/03/21 07:05:45;;;;;;;18.80;12.88;;;6.50;58.60;;;;;;5092292;28;20229;-89
2022/03/21 07:08:12;;;;;;;23.73;14.40;;;5.40;68.80;;;;;;5092261;28;20194;-88
2022/03/21 07:10:41;;;;;;;20.05;12.70;;;7.80;58.80;;;;;;5093261;28;20194;-88
2022/03/21 07:13:08;;;;;;;18.50;11.48;;;5.60;74.20;;;;;;5084720;28;20295;-89
2022/03/21 07:15:37;;;;;;;16.70;12.82;;;5.60;73.10;;;;;;5091336;28;20230;-89
2022/03/21 07:18:04;;;;;;;18.55;14.02;;;6.10;65.70;;;;;;5090420;28;20729;-89
2022/03/21 07:20:31;;;;;;;16.95;13.35;;;6.20;65.60;;;;;;5092950;28;20187;-88
2022/03/21 07:22:59;;;;;;;17.83;13.90;;;5.90;65.10;;;;;;5093831;28;20252;-89
2022/03/21 07:25:27;;;;;;;18.80;13.60;;;6.00;57.20;;;;;;5093377;28;20216;-90
2022/03/21 07:27:56;;;;;;;19.35;12.73;;;6.20;65.60;;;;;;5093644;28;20223;-89
2022/03/21 07:30:24;;;;;;;15.82;13.07;;;6.30;57.20;;;;;;5093873;28;20531;-89
2022/03/21 07:32:51;;;;;;;17.92;14.52;;;;;;;;;;5093965;28;20191;-89
2022/03/21 07:35:18;;;;;;;15.27;12.60;;;6.40;73.70;;;;;;5093167;28;20211;-89
2022/03/21 07:37:47;;;;;;;19.30;13.57;;;6.40;56.10;;;;;;5093911;28;20201;-89
2022/03/21 07:40:15;;;;;;;20.63;12.70;;;6.40;55.70;;;;;;5093943;28;20198;-89
2022/03/21 07:42:43;;;;;;;17.98;13.43;;;7.20;70.10;;;;;;5093411;28;20574;-89
2022/03/21 07:48:01;;;;;;;19.58;12.93;;;7.30;55.30;;;;;;5093833;28;20664;-89
2022/03/21 07:50:29;;;;;;;17.38;12.65;;;7.30;55.30;;;;;;5093017;28;20551;-89
2022/03/21 07:52:58;;;;;;;16.30;11.77;;;7.50;55.10;;;;;;5093487;28;20251;-89
2022/03/21 07:55:25;;;;;;;19.20;14.38;;;7.60;55.40;;;;;;5093533;28;20757;-89
2022/03/21 07:57:52;;;;;;;16.30;12.32;;;7.70;55.30;;;;;;5093596;28;20290;-89
2022/03/21 08:00:21;;;;;;;17.80;12.95;;;7.60;69.80;;;;;;5092607;28;20210;-89
2022/03/21 08:02:49;;;;;;;17.23;12.73;;;7.90;61.10;;;;;;5093482;28;20200;-89
2022/03/21 08:05:17;;;;;;;18.38;13.27;;;;;;;;;;5072717;28;20238;-88
2022/03/21 08:07:44;;;;;;;18.73;12.52;;;6.60;53.00;;;;;;5072882;28;20272;-89
2022/03/21 08:10:11;;;;;;;16.27;13.38;;;8.00;54.30;;;;;;5072517;28;20189;-90
2022/03/21 08:12:42;;;;;;;16.33;12.80;;;8.10;54.70;;;;;;5072569;28;20200;-89
2022/03/21 08:15:11;;;;;;;18.75;13.75;;;8.40;71.50;;;;;;5074197;28;20197;-89
2022/03/21 08:17:50;;;;;;;20.55;14.25;;;8.20;55.00;;;;;;5075222;28;20205;-89
2022/03/21 08:20:19;;;;;;;19.38;13.80;;;8.40;55.10;;;;;;5079080;28;20191;-92
2022/03/21 08:22:47;;;;;;;18.05;13.15;;;8.70;56.20;;;;;;5092242;28;20227;-89
2022/03/21 08:25:15;;;;;;;23.30;14.45;;;8.90;60.80;;;;;;5091729;28;20193;-89
2022/03/21 08:27:43;;;;;;;18.67;13.98;;;8.60;69.30;;;;;;5092823;28;20243;-88
2022/03/21 08:30:11;;;;;;;24.77;13.10;;;8.60;55.00;;;;;;5091710;28;20293;-90
2022/03/21 08:32:38;;;;;;;19.83;13.25;;;8.80;54.40;;;;;;5091480;28;20660;-90
2022/03/21 08:35:07;;;;;;;20.20;14.93;;;8.90;68.50;;;;;;5088404;28;20804;-89
2022/03/21 08:37:53;;;;;;;17.38;13.05;;;9.40;68.50;;;;;;5092759;28;20209;-92
2022/03/21 08:40:22;;;;;;;18.63;13.27;;;;;;;;;;5092915;28;20259;-90
2022/03/21 08:43:08;;;;;;;17.52;13.13;;;9.10;53.80;;;;;;5096426;28;20612;-91
2022/03/21 08:45:36;;;;;;;18.50;13.10;;;;;;;;;;5091505;28;20194;-91
2022/03/21 08:48:04;;;;;;;19.40;13.60;;;9.50;59.10;;;;;;5087224;28;20623;-89
2022/03/21 08:50:34;;;;;;;18.53;12.90;;;9.50;53.10;;;;;;5091340;28;20627;-90
2022/03/21 08:53:01;;;;;;;19.23;14.53;;;9.40;53.00;;;;;;5090882;28;20604;-89
2022/03/21 08:55:28;;;;;;;22.17;14.33;;;9.60;58.50;;;;;;5091616;28;20679;-90
2022/03/21 08:57:56;;;;;;;17.27;13.53;;;9.70;53.40;;;;;;5089124;28;20629;-90
2022/03/21 09:00:23;;;;;;;18.43;12.97;;;;;;;;;;5091736;28;20632;-88
2022/03/21 09:02:52;;;;;;;28.17;15.30;;;9.70;65.20;;;;;;5089798;28;20647;-91
2022/03/21 09:05:20;;;;;;;19.57;14.97;;;9.90;53.10;;;;;;5081229;28;20608;-89
2022/03/21 09:07:48;;;;;;;29.80;14.23;;;10.20;64.80;;;;;;5090279;28;20604;-89
2022/03/21 09:10:16;;;;;;;18.07;13.30;;;;;;;;;;5090303;28;20619;-91
2022/03/21 09:12:43;;;;;;;20.43;13.03;;;10.30;51.80;;;;;;5090395;28;20612;-88
2022/03/21 09:15:11;;;;;;;21.10;14.93;;;10.60;62.60;;;;;;5089663;28;20608;-89
2022/03/21 09:17:38;;;;;;;22.17;13.17;;;;;;;;;;5090489;28;20980;-89
2022/03/21 09:20:07;;;;;;;19.87;15.87;;;9.70;57.10;;;;;;5090477;28;20663;-90
2022/03/21 09:22:34;;;;;;;19.90;14.57;;;;;;;;;;5090815;28;20641;-89
2022/03/21 09:25:03;;;;;;;21.00;14.67;;;10.70;51.20;;;;;;5091319;28;20613;-89
2022/03/21 09:27:30;;;;;;;20.07;13.90;;;;;;;;;;5090857;28;20721;-89
2022/03/21 09:29:58;;;;;;;23.87;14.40;;;;;;;;;;5090403;28;20629;-90
2022/03/21 09:32:25;;;;;;;17.03;13.73;;;;;;;;;;5091385;28;20619;-90
2022/03/21 09:34:52;;;;;;;18.30;12.47;;;10.60;59.50;;;;;;5091287;28;20631;-91
2022/03/21 09:37:20;;;;;;;21.83;13.30;;;;;;;;;;5091297;28;20656;-90
2022/03/21 09:39:47;;;;;;;20.20;14.00;;;;;;;;;;5091044;28;20666;-90
2022/03/21 09:42:16;;;;;;;20.97;14.57;;;11.40;51.10;;;;;;5090734;28;20601;-89
2022/03/21 09:44:43;;;;;;;18.50;14.40;;;;;;;;;;5091662;28;20608;-89
2022/03/21 09:49:58;;;;;;;21.20;15.30;;;11.80;50.50;;;;;;5068146;28;21185;-89
2022/03/21 09:52:25;;;;;;;19.93;14.90;;;12.20;54.90;;;;;;5091260;28;20613;-90
2022/03/21 09:54:52;;;;;;;20.10;14.63;;;11.90;59.90;;;;;;5089397;28;20671;-89
2022/03/21 09:57:20;;;;;;;19.77;14.27;;;12.10;50.60;;;;;;5095052;28;20968;-89
2022/03/21 09:59:49;;;;;;;18.60;14.10;;;12.10;59.00;;;;;;5095171;28;20620;-90
2022/03/21 10:02:18;;;;;;;18.80;13.57;;;12.10;50.80;;;;;;5094331;28;20670;-90
2022/03/21 10:04:47;;;;;;;18.67;15.03;;;;;;;;;;5094016;28;20700;-89
2022/03/21 10:07:16;;;;;;;18.97;14.53;;;11.80;57.90;;;;;;5092666;28;20674;-90
2022/03/21 10:09:43;;;;;;;18.13;14.53;;;12.20;49.30;;;;;;5091114;28;20715;-89
2022/03/21 10:12:12;;;;;;;22.87;16.50;;;12.00;49.30;;;;;;5089437;28;20743;-89
2022/03/21 10:14:43;;;;;;;17.97;14.30;;;12.10;49.30;;;;;;5094389;28;20719;-91
2022/03/21 10:17:12;;;;;;;19.53;14.30;;;12.00;61.00;;;;;;5093455;28;23100;-89
2022/03/21 10:19:46;;;;;;;20.03;14.97;;;12.20;54.10;;;;;;5093815;28;20670;-90
2022/03/21 10:22:14;;;;;;;15.17;13.60;;;12.40;50.00;;;;;;5091669;28;20724;-90
2022/03/21 10:24:44;;;;;;;21.60;14.50;;;12.30;50.30;;;;;;5094602;28;20601;-88
2022/03/21 10:27:27;;;;;;;20.87;14.43;;;12.50;50.30;;;;;;5092271;28;21419;-89
2022/03/21 10:30:01;;;;;;;21.33;14.90;;;12.70;49.00;;;;;;5092463;28;21042;-89
2022/03/21 10:32:40;;;;;;;17.93;16.03;;;12.80;58.60;;;;;;5092834;28;21021;-90
2022/03/21 10:35:12;;;;;;;18.00;13.63;;;12.70;47.90;;;;;;5094051;28;20640;-89
2022/03/21 10:37:58;;;;;;;20.10;14.87;;;13.00;59.60;;;;;;5093733;28;20657;-90
2022/03/21 10:40:27;;;;;;;19.27;14.90;;;13.00;49.60;;;;;;5093604;28;21196;-90
2022/03/21 10:42:59;;;;;;;19.50;15.40;;;13.50;58.70;;;;;;5091204;28;20635;-90
2022/03/21 10:45:42;;;;;;;19.00;15.23;;;13.40;49.20;;;;;;5094531;28;20649;-89
2022/03/21 10:48:11;;;;;;;22.37;15.60;;;13.20;53.60;;;;;;5092501;28;20621;-90
2022/03/21 10:50:43;;;;;;;16.80;14.80;;;13.50;49.10;;;;;;5093666;28;20605;-90
2022/03/21 10:53:13;;;;;;;21.57;14.93;;;13.80;59.60;;;;;;5089957;28;20949;-90
2022/03/21 10:55:41;;;;;;;19.63;15.10;;;14.60;50.50;;;;;;5094713;28;20627;-89
2022/03/21 10:58:09;;;;;;;21.00;15.10;;;13.90;53.40;;;;;;5086159;28;20677;-89
2022/03/21 11:00:37;;;;;;;17.07;14.00;;;13.90;48.90;;;;;;5097016;28;20621;-90
2022/03/21 11:03:06;;;;;;;18.57;14.57;;;14.00;49.00;;;;;;5093154;28;20672;-90
2022/03/21 11:05:36;;;;;;;16.07;14.33;;;14.10;48.30;;;;;;5093848;28;20680;-89
2022/03/21 11:08:03;;;;;;;19.07;15.07;;;;;;;;;;5092769;28;21086;-90
2022/03/21 11:10:31;;;;;;;20.87;14.37;;;14.10;49.10;;;;;;5093554;28;20665;-89
2022/03/21 11:13:01;;;;;;;20.30;15.83;;;14.20;48.70;;;;;;5091439;28;20683;-90
2022/03/21 11:15:28;;;;;;;17.07;15.13;;;14.20;49.40;;;;;;5091777;28;20728;-89
2022/03/21 11:17:57;;;;;;;19.70;15.20;;;14.00;47.80;;;;;;5092823;28;20660;-90
2022/03/21 11:20:25;;;;;;;19.57;14.10;;;14.00;59.20;;;;;;5093152;28;21162;-89
2022/03/21 11:22:55;;;;;;;21.67;17.10;;;;;;;;;;5092340;28;21044;-89
2022/03/21 11:25:24;;;;;;;18.57;14.80;;;14.40;47.90;;;;;;5093097;28;20634;-91
2022/03/21 11:28:23;;;;;;;23.97;16.17;;;14.90;57.70;;;;;;5092872;28;20639;-90
2022/03/21 11:31:10;;;;;;;19.77;15.33;;;14.40;46.90;;;;;;5091898;28;20709;-89
2022/03/21 11:33:44;;;;;;;17.70;15.77;;;14.40;47.20;;;;;;5093105;28;20619;-90
2022/03/21 11:36:12;;;;;;;22.30;16.63;;;14.40;48.40;;;;;;5091369;28;20674;-90
2022/03/21 11:38:45;;;;;;;18.20;15.00;;;14.40;47.60;;;;;;5090080;28;20608;-89
2022/03/21 11:41:15;;;;;;;18.50;13.90;;;14.60;58.00;;;;;;5089717;28;21196;-89
2022/03/21 11:43:43;;;;;;;18.33;15.10;;;14.50;47.60;;;;;;5091548;28;21012;-89
2022/03/21 11:46:28;;;;;;;26.83;16.67;;;14.70;56.90;;;;;;5091601;28;20625;-90
2022/03/21 11:48:58;;;;;;;20.27;15.33;;;14.80;51.20;;;;;;5090393;28;21250;-89
2022/03/21 11:51:35;;;;;;;18.47;14.93;;;15.00;52.10;;;;;;5091100;28;20638;-90
2022/03/21 11:54:02;;;;;;;21.05;16.48;;;15.20;57.10;;;;;;5072518;28;20737;-90
2022/03/21 11:56:52;;;;;;;25.27;16.80;;;14.90;46.70;;;;;;5092326;28;20220;-90
2022/03/21 12:00:02;;;;;;;20.67;14.27;;;15.00;47.00;;;;;;5091082;28;20626;-89
2022/03/21 12:02:55;;;;;;;23.33;13.97;;;14.80;46.40;;;;;;5072470;28;20626;-90
2022/03/21 12:05:40;;;;;;;16.23;12.00;;;15.00;57.10;;;;;;5088291;28;20613;-91
2022/03/21 12:08:44;;;;;;;18.83;14.27;;;14.70;56.00;;;;;;5091740;28;20623;-89
2022/03/21 12:11:49;;;;;;;23.63;15.40;;;15.10;46.60;;;;;;5086420;28;21028;-89
2022/03/21 12:14:29;;;;;;;17.90;14.40;;;14.80;50.00;;;;;;5091143;28;21168;-89
2022/03/21 12:17:41;;;;;;;15.77;14.07;;;15.00;45.40;;;;;;5090893;28;20672;-90
2022/03/21 12:20:10;;;;;;;22.40;14.60;;;15.00;54.70;;;;;;5090073;28;20662;-89
2022/03/21 12:22:40;;;;;;;16.40;13.30;;;15.60;56.00;;;;;;5084442;28;20718;-89
2022/03/21 12:25:16;;;;;;;17.30;13.23;;;15.50;50.20;;;;;;5090972;28;20703;-90
2022/03/21 12:27:44;;;;;;;20.23;14.23;;;15.50;54.40;;;;;;5090495;28;20636;-89
2022/03/21 12:30:37;;;;;;;20.00;14.83;;;15.10;54.90;;;;;;5091803;28;21178;-90
2022/03/21 12:33:28;;;;;;;21.27;14.90;;;15.30;45.80;;;;;;5087025;28;20626;-91
2022/03/21 12:36:04;;;;;;;17.77;13.80;;;15.70;45.60;;;;;;5081170;28;21382;-90
2022/03/21 12:38:34;;;;;;;16.03;13.73;;;15.50;45.20;;;;;;5083402;28;20669;-90
2022/03/21 12:41:03;;;;;;;19.60;14.73;;;15.30;48.90;;;;;;5087384;28;20657;-91
2022/03/21 12:43:45;;;;;;;20.83;15.10;;;15.70;49.80;;;;;;5089577;28;20607;-89
2022/03/21 12:46:16;;;;;;;17.33;14.13;;;15.70;44.20;;;;;;5088711;28;20615;-89
2022/03/21 12:48:47;;;;;;;19.37;15.27;;;15.70;44.50;;;;;;5085781;28;20651;-89
2022/03/21 12:51:16;;;;;;;17.03;14.27;;;15.80;44.30;;;;;;5090430;28;20635;-90
2022/03/21 12:53:56;;;;;;;15.27;13.30;;;;;;;;;;5088495;28;20652;-90
2022/03/21 12:56:26;;;;;;;17.60;14.20;;;15.90;44.60;;;;;;5090474;28;20625;-90
2022/03/21 12:59:00;;;;;;;18.60;15.30;;;15.90;45.00;;;;;;5071070;28;20632;-90
2022/03/21 13:01:27;;;;;;;15.63;12.03;;;15.70;54.80;;;;;;5087147;28;20628;-90
2022/03/21 13:10:32;;;;;;;17.70;13.97;;;16.20;53.50;;;;;;5089975;28;20610;-91
2022/03/21 13:12:32;;;;;;;16.30;13.07;;;;;;;;;;5089344;28;20640;-90
2022/03/21 13:15:10;;;;;;;16.33;13.70;;;16.10;47.40;;;;;;5089218;28;21181;-90
2022/03/21 13:18:01;;;;;;;15.30;13.13;;;16.40;44.00;;;;;;5088347;28;20623;-91
2022/03/21 13:20:31;;;;;;;19.80;13.13;;;16.30;43.80;;;;;;5087555;28;20735;-89
2022/03/21 13:22:59;;;;;;;16.60;13.10;;;16.10;52.00;;;;;;5088677;28;20644;-90
2022/03/21 13:25:30;;;;;;;20.53;13.50;;;16.10;51.40;;;;;;5090324;28;20624;-90
2022/03/21 13:28:19;;;;;;;13.57;11.07;;;16.30;42.80;;;;;;5090235;28;20660;-90
2022/03/21 13:30:57;;;;;;;18.30;12.50;;;16.60;45.70;;;;;;5087089;28;20616;-90
2022/03/21 13:33:29;;;;;;;16.03;10.97;;;16.60;42.10;;;;;;5091737;28;20639;-89
2022/03/21 13:35:58;;;;;;;15.40;12.40;;;16.90;46.20;;;;;;5091820;28;20660;-90